Time;durP1;ratioP1;P1;durP2;ratioP2;P2;SDS_P1;SDS_P2;PMS_P1;PMS_P2;Temp;Humidity;BMP_temperature;BMP_pressure;BME280_temperature;BME280_humidity;BME280_pressure;Samples;Min_cycle;Max_cycle;Signal;HPM_P1;HPM_P2
2022/05/05 05:37:35;;;;;;;;;;;;;;;14.06;100.00;98626.97;5785004;23;19964;-74
2022/05/05 05:40:02;;;;;;;;;;;;;;;13.89;100.00;98635.53;4883454;29;20248;-74
2022/05/05 05:42:30;;;;;;;;;;;;;;;13.80;100.00;98638.78;4884110;29;20317;-75
2022/05/05 05:44:57;;;;;;;;;;;;;;;13.65;100.00;98640.09;4883036;29;19947;-75
2022/05/05 05:47:24;;;;;;;;;;;;;;;13.59;100.00;98644.53;4884000;29;19954;-75
2022/05/05 05:49:52;;;;;;;;;;;;;;;13.55;100.00;98650.16;4883850;29;19944;-75
2022/05/05 05:52:19;;;;;;;;;;;;;;;13.54;100.00;98657.03;4883866;29;19966;-75
2022/05/05 05:54:47;;;;;;;;;;;;;;;13.49;100.00;98645.41;4883162;29;20356;-74
2022/05/05 05:57:16;;;;;;;;;;;;;;;13.41;100.00;98641.81;4883776;29;19956;-75
2022/05/05 05:59:43;;;;;;;;;;;;;;;13.39;100.00;98638.63;4883182;29;19953;-74
2022/05/05 06:04:56;;;;;;;;;;;;;;;13.24;100.00;98619.41;4884324;29;19952;-74
2022/05/05 06:07:23;;;;;;;;;;;;;;;13.18;100.00;98623.88;4883700;29;19958;-74
2022/05/05 06:09:51;;;;;;;;;;;;;;;13.20;100.00;98622.25;4883627;29;20329;-74
2022/05/05 06:12:18;;;;;;;;;;;;;;;13.20;100.00;98621.47;4882171;29;19951;-74
2022/05/05 06:14:45;;;;;;;;;;;;;;;13.21;100.00;98623.03;4880918;29;19977;-75
2022/05/05 06:17:13;;;;;;;;;;;;;;;13.26;100.00;98636.66;4886488;29;19948;-75
2022/05/05 06:19:43;;;;;;;;;;;;;;;13.32;100.00;98635.84;4880153;29;19965;-75
2022/05/05 06:22:10;;;;;;;;;;;;;;;13.35;100.00;98646.25;4872479;29;19950;-74
2022/05/05 06:24:37;;;;;;;;;;;;;;;13.31;100.00;98645.47;4875783;29;19949;-74
2022/05/05 06:27:04;;;;;;;;;;;;;;;13.34;100.00;98633.44;4885837;29;19946;-75
2022/05/05 06:29:32;;;;;;;;;;;;;;;13.38;100.00;98645.44;4894801;29;19955;-75
2022/05/05 06:31:59;;;;;;;;;;;;;;;13.42;100.00;98637.81;4883315;29;19955;-75
2022/05/05 06:34:26;;;;;;;;;;;;;;;13.49;100.00;98632.16;4883679;29;19964;-75
2022/05/05 06:36:54;;;;;;;;;;;;;;;13.55;100.00;98629.69;4889477;29;19950;-75
2022/05/05 06:39:21;;;;;;;;;;;;;;;13.56;100.00;98628.50;4881908;29;19969;-75
2022/05/05 06:41:48;;;;;;;;;;;;;;;13.56;100.00;98634.13;4900371;29;19947;-75
2022/05/05 06:44:15;;;;;;;;;;;;;;;13.56;100.00;98634.94;4884674;29;19948;-75
2022/05/05 06:46:44;;;;;;;;;;;;;;;13.56;100.00;98634.13;4884345;29;19954;-75
2022/05/05 06:49:12;;;;;;;;;;;;;;;13.64;100.00;98630.88;4870969;29;19950;-74
2022/05/05 06:51:39;;;;;;;;;;;;;;;13.74;100.00;98643.25;4874112;29;19949;-74
2022/05/05 06:54:06;;;;;;;;;;;;;;;13.82;100.00;98645.59;4884762;29;19991;-74
2022/05/05 06:56:34;;;;;;;;;;;;;;;13.92;100.00;98643.13;4878540;29;20241;-75
2022/05/05 06:59:01;;;;;;;;;;;;;;;14.00;100.00;98642.69;4871132;29;19947;-75
2022/05/05 07:07:17;;;;;;;;;;;;;;;14.32;100.00;98676.22;4871403;29;20252;-74
2022/05/05 07:12:31;;;;;;;;;;;;;;;14.54;100.00;98683.28;4880884;29;20362;-75
2022/05/05 07:14:59;;;;;;;;;;;;;;;14.63;100.00;98669.53;4874190;29;19970;-75
2022/05/05 07:17:26;;;;;;;;;;;;;;;14.72;100.00;98666.25;4885321;29;20029;-75
2022/05/05 07:19:54;;;;;;;;;;;;;;;14.76;100.00;98659.34;4885498;29;20247;-75
2022/05/05 07:22:21;;;;;;;;;;;;;;;14.83;100.00;98655.66;4885209;29;19953;-75
2022/05/05 07:24:49;;;;;;;;;;;;;;;14.91;100.00;98660.81;4876860;29;19949;-74
2022/05/05 07:27:16;;;;;;;;;;;;;;;14.92;100.00;98655.97;4885264;29;19956;-75
2022/05/05 07:29:44;;;;;;;;;;;;;;;14.96;100.00;98659.56;4885154;29;19955;-75
2022/05/05 07:32:11;;;;;;;;;;;;;;;14.96;100.00;98657.56;4885388;29;19949;-75
2022/05/05 07:34:39;;;;;;;;;;;;;;;14.96;100.00;98657.56;4885620;29;19973;-75
2022/05/05 07:37:06;;;;;;;;;;;;;;;14.97;100.00;98656.31;4884710;29;20470;-75
2022/05/05 07:39:33;;;;;;;;;;;;;;;14.98;100.00;98657.94;4885844;29;19968;-75
2022/05/05 07:42:00;;;;;;;;;;;;;;;14.97;100.00;98656.31;4885650;29;19959;-75
2022/05/05 07:44:28;;;;;;;;;;;;;;;14.97;100.00;98667.59;4884309;29;20250;-75
2022/05/05 07:46:56;;;;;;;;;;;;;;;14.97;100.00;98661.94;4884248;29;19951;-75
2022/05/05 07:49:23;;;;;;;;;;;;;;;14.96;100.00;98676.47;4885164;29;19956;-74
2022/05/05 07:51:54;;;;;;;;;;;;;;;14.92;100.00;98667.22;4884568;29;20221;-75
2022/05/05 07:54:39;;;;;;;;;;;;;;;14.89;100.00;98680.13;4885241;29;19966;-75
2022/05/05 07:57:07;;;;;;;;;;;;;;;14.78;100.00;98681.44;4884259;29;19952;-75
2022/05/05 07:59:34;;;;;;;;;;;;;;;14.79;100.00;98689.50;4882008;29;19950;-75
2022/05/05 08:02:03;;;;;;;;;;;;;;;14.83;100.00;98690.25;4884729;29;20243;-75
2022/05/05 08:04:31;;;;;;;;;;;;;;;14.83;100.00;98687.44;4885272;29;19955;-75
2022/05/05 08:06:59;;;;;;;;;;;;;;;14.87;100.00;98693.81;4884609;29;19949;-74
2022/05/05 08:09:26;;;;;;;;;;;;;;;14.85;100.00;98704.72;4884419;29;19952;-75
2022/05/05 08:12:06;;;;;;;;;;;;;;;14.82;100.00;98699.09;4885144;29;19948;-75
2022/05/05 08:14:33;;;;;;;;;;;;;;;14.80;100.00;98701.53;4885083;29;19967;-75
2022/05/05 08:17:00;;;;;;;;;;;;;;;14.78;100.00;98699.16;4884209;29;19955;-75
2022/05/05 08:19:28;;;;;;;;;;;;;;;14.77;100.00;98697.53;4882189;29;20335;-75
2022/05/05 08:21:55;;;;;;;;;;;;;;;14.72;100.00;98698.00;4870518;29;19949;-75
2022/05/05 08:29:54;;;;;;;;;;;;;;;14.60;100.00;98715.38;4884720;29;19955;-75
2022/05/05 08:32:21;;;;;;;;;;;;;;;14.48;100.00;98711.06;4884597;29;20236;-75
2022/05/05 08:34:49;;;;;;;;;;;;;;;14.34;100.00;98721.63;4884279;29;20380;-75
2022/05/05 08:37:16;;;;;;;;;;;;;;;14.32;100.00;98710.00;4883694;29;19957;-75
2022/05/05 08:39:44;;;;;;;;;;;;;;;14.39;100.00;98707.94;4884256;29;19950;-75
2022/05/05 08:42:11;;;;;;;;;;;;;;;14.43;100.00;98707.88;4884330;29;19955;-75
2022/05/05 08:44:39;;;;;;;;;;;;;;;14.40;100.00;98711.53;4883873;29;19956;-75
2022/05/05 08:47:09;;;;;;;;;;;;;;;14.44;100.00;98703.88;4883065;29;19992;-75
2022/05/05 08:49:37;;;;;;;;;;;;;;;14.48;100.00;98695.41;4884219;29;20324;-75
2022/05/05 08:52:07;;;;;;;;;;;;;;;14.49;100.00;98700.59;4884263;29;20258;-75
2022/05/05 08:54:34;;;;;;;;;;;;;;;14.38;100.00;98697.06;4883429;29;19972;-75
2022/05/05 08:57:01;;;;;;;;;;;;;;;14.40;100.00;98692.63;4883555;29;19957;-75
2022/05/05 08:59:29;;;;;;;;;;;;;;;14.46;100.00;98693.00;4883700;29;19953;-75
2022/05/05 09:01:56;;;;;;;;;;;;;;;14.29;100.00;98688.28;4884158;29;20252;-75
2022/05/05 09:04:24;;;;;;;;;;;;;;;14.16;100.00;98687.94;4883966;29;19949;-75
2022/05/05 09:06:52;;;;;;;;;;;;;;;14.31;100.00;98697.94;4883746;29;19951;-75
2022/05/05 09:09:23;;;;;;;;;;;;;;;14.25;100.00;98688.31;4883988;29;19947;-75
2022/05/05 09:12:30;;;;;;;;;;;;;;;14.36;100.00;98693.88;4882901;29;19950;-75
2022/05/05 09:14:57;;;;;;;;;;;;;;;14.35;100.00;98684.63;4825108;29;19972;-75
2022/05/05 09:17:26;;;;;;;;;;;;;;;14.32;100.00;98690.28;4825547;29;19950;-75
2022/05/05 09:19:54;;;;;;;;;;;;;;;14.33;100.00;98684.25;4854952;29;20364;-75
2022/05/05 09:22:23;;;;;;;;;;;;;;;14.35;100.00;98693.06;4883107;29;20252;-75
2022/05/05 09:24:51;;;;;;;;;;;;;;;14.43;100.00;98691.00;4883306;29;19949;-75
2022/05/05 09:27:23;;;;;;;;;;;;;;;14.45;100.00;98694.22;4882495;29;19951;-75
2022/05/05 09:30:01;;;;;;;;;;;;;;;14.55;100.00;98698.94;4883093;29;19961;-75
2022/05/05 09:32:29;;;;;;;;;;;;;;;14.48;100.00;98690.56;4883825;29;19955;-75
2022/05/05 09:35:17;;;;;;;;;;;;;;;14.27;100.00;98696.31;4882969;29;19967;-75
2022/05/05 09:37:45;;;;;;;;;;;;;;;14.31;100.00;98703.56;4883012;29;20226;-75
2022/05/05 09:40:13;;;;;;;;;;;;;;;14.35;100.00;98698.69;4883240;29;19947;-74
2022/05/05 09:42:44;;;;;;;;;;;;;;;14.34;100.00;98696.31;4883348;29;20350;-75
2022/05/05 09:45:19;;;;;;;;;;;;;;;14.29;100.00;98705.16;4883009;29;19955;-75
2022/05/05 09:47:50;;;;;;;;;;;;;;;14.35;100.00;98703.53;4881541;29;19959;-75
2022/05/05 09:50:21;;;;;;;;;;;;;;;14.42;100.00;98698.66;4883202;29;19950;-75
2022/05/05 09:58:23;;;;;;;;;;;;;;;14.53;100.00;98692.94;4882754;29;19947;-75
2022/05/05 10:04:05;;;;;;;;;;;;;;;14.41;100.00;98694.25;4860468;29;19952;-75
2022/05/05 10:06:34;;;;;;;;;;;;;;;14.39;100.00;98696.66;4878256;29;19955;-74
2022/05/05 10:09:01;;;;;;;;;;;;;;;14.43;100.00;98705.06;4882341;29;19954;-75
2022/05/05 10:11:28;;;;;;;;;;;;;;;14.44;100.00;98701.06;4882964;29;19946;-75
2022/05/05 10:13:58;;;;;;;;;;;;;;;14.42;100.00;98703.47;4883032;29;19955;-75
2022/05/05 10:16:26;;;;;;;;;;;;;;;14.45;100.00;98711.09;4882875;29;19974;-75
2022/05/05 10:18:53;;;;;;;;;;;;;;;14.46;100.00;98707.88;4882331;29;19955;-76
2022/05/05 10:21:39;;;;;;;;;;;;;;;14.41;100.00;98701.88;4882889;29;19951;-75
2022/05/05 10:24:16;;;;;;;;;;;;;;;14.29;100.00;98705.16;4883038;29;19950;-75
2022/05/05 10:26:50;;;;;;;;;;;;;;;14.30;100.00;98701.97;4897235;29;20240;-76
2022/05/05 10:29:36;;;;;;;;;;;;;;;14.37;100.00;98699.09;4893314;29;19948;-75
2022/05/05 10:32:09;;;;;;;;;;;;;;;14.40;100.00;98695.44;4883013;29;19956;-75
2022/05/05 10:34:40;;;;;;;;;;;;;;;14.49;100.00;98703.44;4882168;29;19949;-76
2022/05/05 10:37:12;;;;;;;;;;;;;;;14.46;100.00;98693.00;4880718;29;19964;-75
2022/05/05 10:39:41;;;;;;;;;;;;;;;14.34;100.00;98696.31;4880092;29;19949;-75
2022/05/05 10:42:15;;;;;;;;;;;;;;;14.46;100.00;98701.44;4881975;29;20247;-75
2022/05/05 10:45:01;;;;;;;;;;;;;;;14.50;100.00;98699.38;4882397;29;19950;-75
2022/05/05 10:47:48;;;;;;;;;;;;;;;14.52;100.00;98698.97;4881734;29;19948;-75
2022/05/05 10:50:28;;;;;;;;;;;;;;;14.51;100.00;98695.38;4882782;29;20344;-75
2022/05/05 10:52:56;;;;;;;;;;;;;;;14.56;100.00;98689.28;4882590;29;19958;-75
2022/05/05 10:55:30;;;;;;;;;;;;;;;14.53;100.00;98694.94;4882756;29;19970;-75
2022/05/05 10:58:11;;;;;;;;;;;;;;;14.55;100.00;98696.13;4881990;29;19953;-75
2022/05/05 11:00:42;;;;;;;;;;;;;;;14.42;100.00;98697.84;4881816;29;19952;-75
2022/05/05 11:03:09;;;;;;;;;;;;;;;14.45;100.00;98692.19;4880691;29;19957;-75
2022/05/05 11:05:38;;;;;;;;;;;;;;;14.37;100.00;98695.47;4882997;29;19946;-75
2022/05/05 11:08:14;;;;;;;;;;;;;;;14.27;100.00;98699.94;4882444;29;19955;-75
2022/05/05 11:10:41;;;;;;;;;;;;;;;14.37;100.00;98695.47;4879571;29;19950;-75
2022/05/05 11:13:28;;;;;;;;;;;;;;;14.40;100.00;98698.25;4872732;29;19949;-74
2022/05/05 11:21:36;;;;;;;;;;;;;;;14.43;100.00;98696.63;4884175;29;19958;-75
2022/05/05 11:24:05;;;;;;;;;;;;;;;14.42;100.00;98695.03;4885934;29;19953;-75
2022/05/05 11:26:33;;;;;;;;;;;;;;;14.41;100.00;98696.25;4885553;29;19958;-75
2022/05/05 11:29:00;;;;;;;;;;;;;;;14.45;100.00;98700.63;4885909;29;20247;-75
2022/05/05 11:31:29;;;;;;;;;;;;;;;14.50;100.00;98705.00;4885738;29;19951;-75
2022/05/05 11:33:57;;;;;;;;;;;;;;;14.39;100.00;98698.69;4885192;29;19950;-75
2022/05/05 11:36:25;;;;;;;;;;;;;;;14.37;100.00;98692.66;4885518;29;19972;-75
2022/05/05 11:38:53;;;;;;;;;;;;;;;14.37;100.00;98698.28;4876243;29;19971;-75
2022/05/05 11:41:20;;;;;;;;;;;;;;;14.37;100.00;98689.84;4881282;29;20334;-74
2022/05/05 11:46:33;;;;;;;;;;;;;;;14.22;100.00;98688.31;4885099;29;20339;-75
2022/05/05 11:49:01;;;;;;;;;;;;;;;14.31;100.00;98685.88;4884857;29;19950;-75
2022/05/05 11:51:31;;;;;;;;;;;;;;;14.29;100.00;98691.09;4885513;29;19948;-75
2022/05/05 11:53:59;;;;;;;;;;;;;;;14.40;100.00;98686.22;4884656;29;19954;-74
2022/05/05 11:56:30;;;;;;;;;;;;;;;14.43;100.00;98683.38;4884437;29;19973;-74
2022/05/05 12:01:58;;;;;;;;;;;;;;;14.49;100.00;98680.91;4899090;29;19958;-75
2022/05/05 12:04:26;;;;;;;;;;;;;;;14.53;100.00;98670.41;4904335;29;19951;-75
2022/05/05 12:06:53;;;;;;;;;;;;;;;14.54;100.00;98672.03;4903199;29;19960;-75
2022/05/05 12:09:21;;;;;;;;;;;;;;;14.59;100.00;98668.78;4903567;29;20327;-75
2022/05/05 12:11:48;;;;;;;;;;;;;;;14.60;100.00;98675.19;4903252;29;19956;-75
2022/05/05 12:14:18;;;;;;;;;;;;;;;14.71;100.00;98667.44;4904032;29;19949;-75
2022/05/05 12:16:45;;;;;;;;;;;;;;;14.75;100.00;98662.56;4903376;29;19977;-75
2022/05/05 12:19:15;;;;;;;;;;;;;;;14.66;100.00;98668.69;4883919;29;20256;-75
2022/05/05 12:21:54;;;;;;;;;;;;;;;14.69;100.00;98661.44;4879271;29;19949;-74
2022/05/05 12:24:23;;;;;;;;;;;;;;;14.65;100.00;98663.47;4881415;29;19952;-75
2022/05/05 12:27:11;;;;;;;;;;;;;;;14.71;100.00;98654.19;4893800;29;19951;-75
2022/05/05 12:29:39;;;;;;;;;;;;;;;14.72;100.00;98649.34;4886406;29;19961;-75
2022/05/05 12:32:24;;;;;;;;;;;;;;;14.82;100.00;98646.41;4886587;29;19956;-75
2022/05/05 12:35:00;;;;;;;;;;;;;;;14.81;100.00;98650.47;4874564;29;19948;-74
2022/05/05 12:37:29;;;;;;;;;;;;;;;14.82;100.00;98645.59;4875629;29;20379;-74
2022/05/05 12:39:57;;;;;;;;;;;;;;;14.81;100.00;98644.84;4877429;29;19952;-75
2022/05/05 12:42:37;;;;;;;;;;;;;;;14.86;100.00;98650.00;4891942;29;20331;-75
2022/05/05 12:45:10;;;;;;;;;;;;;;;14.79;100.00;98646.47;4888141;29;19957;-74
2022/05/05 12:47:42;;;;;;;;;;;;;;;14.71;100.00;98644.94;4884440;29;19982;-75
2022/05/05 12:50:27;;;;;;;;;;;;;;;14.78;100.00;98639.22;4883491;29;19951;-75
2022/05/05 13:01:25;;;;;;;;;;;;;;;14.76;100.00;98639.66;4883017;29;20227;-74
2022/05/05 13:03:54;;;;;;;;;;;;;;;14.66;100.00;98640.56;4886797;29;19948;-75
2022/05/05 13:06:22;;;;;;;;;;;;;;;14.64;100.00;98631.72;4888295;29;20014;-75
2022/05/05 13:08:50;;;;;;;;;;;;;;;14.67;100.00;98624.47;4883457;29;19949;-75
2022/05/05 13:11:19;;;;;;;;;;;;;;;14.75;100.00;98623.16;4883760;29;20332;-75
2022/05/05 13:13:46;;;;;;;;;;;;;;;14.86;100.00;98632.31;4883291;29;20283;-75
2022/05/05 13:16:14;;;;;;;;;;;;;;;14.89;100.00;98626.63;4891381;29;19955;-75
2022/05/05 13:18:42;;;;;;;;;;;;;;;14.81;100.00;98624.31;4889044;29;20553;-75
2022/05/05 13:21:09;;;;;;;;;;;;;;;14.83;100.00;98621.88;4883610;29;19949;-75
2022/05/05 13:23:36;;;;;;;;;;;;;;;14.87;100.00;98626.25;4883292;29;19957;-72
2022/05/05 13:26:04;;;;;;;;;;;;;;;14.86;100.00;98621.06;4884228;29;19951;-72
2022/05/05 13:28:32;;;;;;;;;;;;;;;14.86;100.00;98621.84;4883883;29;20325;-72
2022/05/05 13:30:59;;;;;;;;;;;;;;;14.85;100.00;98620.25;4886115;29;19951;-72
2022/05/05 13:33:27;;;;;;;;;;;;;;;14.85;100.00;98619.44;4883471;29;20339;-72
2022/05/05 13:35:54;;;;;;;;;;;;;;;14.80;100.00;98605.81;4882989;29;19958;-73
2022/05/05 13:38:24;;;;;;;;;;;;;;;14.84;100.00;98606.59;4882444;29;19979;-74
2022/05/05 13:40:52;;;;;;;;;;;;;;;14.85;100.00;98603.34;4885597;29;19962;-75
2022/05/05 13:43:19;;;;;;;;;;;;;;;14.92;100.00;98596.84;4896041;29;19957;-74
2022/05/05 13:45:47;;;;;;;;;;;;;;;14.87;100.00;98597.28;4887951;29;19955;-74
2022/05/05 13:48:16;;;;;;;;;;;;;;;14.93;100.00;98593.63;4896828;29;19946;-74
2022/05/05 13:50:43;;;;;;;;;;;;;;;15.00;100.00;98593.53;4891377;29;19950;-74
2022/05/05 13:53:12;;;;;;;;;;;;;;;14.91;100.00;98584.78;4886023;29;19951;-74
2022/05/05 13:55:40;;;;;;;;;;;;;;;14.85;100.00;98583.66;4882603;29;19949;-73
2022/05/05 13:58:07;;;;;;;;;;;;;;;14.87;100.00;98586.84;4889350;29;19966;-73
2022/05/05 14:00:34;;;;;;;;;;;;;;;14.91;100.00;98579.16;4885118;29;19950;-74
2022/05/05 14:03:01;;;;;;;;;;;;;;;14.96;100.00;98587.16;4882928;29;19999;-74
2022/05/05 14:05:30;;;;;;;;;;;;;;;14.85;100.00;98578.00;4887148;29;19955;-74
2022/05/05 14:13:29;;;;;;;;;;;;;;;14.88;100.00;98574.38;4882495;29;19947;-74
2022/05/05 14:15:56;;;;;;;;;;;;;;;14.98;100.00;98579.06;4884618;29;19963;-74
2022/05/05 14:18:24;;;;;;;;;;;;;;;15.02;100.00;98579.81;4890121;29;19991;-75
2022/05/05 14:20:51;;;;;;;;;;;;;;;15.00;100.00;98584.28;4878608;29;19949;-75
2022/05/05 14:23:19;;;;;;;;;;;;;;;15.00;100.00;98573.00;4883547;29;19962;-76
2022/05/05 14:25:46;;;;;;;;;;;;;;;14.90;100.00;98577.56;4891940;29;19949;-76
2022/05/05 14:28:13;;;;;;;;;;;;;;;14.93;100.00;98571.09;4880847;29;19948;-76
2022/05/05 14:30:40;;;;;;;;;;;;;;;14.96;100.00;98572.28;4870854;29;20263;-75
2022/05/05 14:33:07;;;;;;;;;;;;;;;14.96;100.00;98567.44;4880747;29;19949;-76
2022/05/05 14:35:35;;;;;;;;;;;;;;;14.90;100.00;98574.75;4878639;29;20381;-76
2022/05/05 14:38:03;;;;;;;;;;;;;;;14.96;100.00;98561.81;4879128;29;19977;-76
2022/05/05 14:40:30;;;;;;;;;;;;;;;14.95;100.00;98560.19;4880540;29;19982;-75
2022/05/05 14:42:57;;;;;;;;;;;;;;;14.95;100.00;98554.56;4884154;29;19955;-76
2022/05/05 14:45:25;;;;;;;;;;;;;;;14.98;100.00;98561.38;4887420;29;19954;-75
2022/05/05 14:47:52;;;;;;;;;;;;;;;14.95;100.00;98565.84;4893613;29;19949;-76
2022/05/05 14:50:19;;;;;;;;;;;;;;;14.95;100.00;98571.47;4883982;29;19950;-76
2022/05/05 14:52:49;;;;;;;;;;;;;;;14.95;100.00;98557.38;4882027;29;19965;-75
2022/05/05 14:55:16;;;;;;;;;;;;;;;14.91;100.00;98556.63;4889865;29;19963;-76
2022/05/05 14:57:45;;;;;;;;;;;;;;;14.92;100.00;98561.03;4893308;29;19997;-76
2022/05/05 15:00:12;;;;;;;;;;;;;;;14.92;100.00;98555.41;4885113;29;19948;-76
2022/05/05 15:02:39;;;;;;;;;;;;;;;14.91;100.00;98555.84;4880496;29;19984;-76
2022/05/05 15:05:09;;;;;;;;;;;;;;;14.92;100.00;98546.16;4885342;29;19955;-76
2022/05/05 15:07:36;;;;;;;;;;;;;;;14.94;100.00;98558.59;4884976;29;19952;-76
2022/05/05 15:10:04;;;;;;;;;;;;;;;14.95;100.00;98551.75;4885544;29;20376;-76
2022/05/05 15:12:31;;;;;;;;;;;;;;;14.99;100.00;98546.88;4886871;29;19955;-76
2022/05/05 15:14:59;;;;;;;;;;;;;;;14.95;100.00;98554.56;4891619;29;20251;-76
2022/05/05 15:17:26;;;;;;;;;;;;;;;14.90;100.00;98555.03;4885797;29;19973;-76
2022/05/05 15:19:53;;;;;;;;;;;;;;;14.90;100.00;98555.03;4889156;29;19948;-75
2022/05/05 15:22:21;;;;;;;;;;;;;;;14.90;100.00;98557.84;4885672;29;19950;-76
2022/05/05 15:25:08;;;;;;;;;;;;;;;14.92;100.00;98554.59;4888691;29;19952;-76
2022/05/05 15:27:36;;;;;;;;;;;;;;;14.91;100.00;98551.00;4888318;29;19955;-76
2022/05/05 15:30:04;;;;;;;;;;;;;;;14.90;100.00;98557.84;4888695;29;19957;-76
2022/05/05 15:32:32;;;;;;;;;;;;;;;14.88;100.00;98551.03;4889887;29;19957;-75
2022/05/05 15:35:00;;;;;;;;;;;;;;;14.77;100.00;98553.97;4887079;29;19958;-76
2022/05/05 15:37:27;;;;;;;;;;;;;;;14.75;100.00;98561.22;4884404;29;19972;-76
2022/05/05 15:39:54;;;;;;;;;;;;;;;14.69;100.00;98560.91;4884888;29;19955;-75
2022/05/05 15:42:22;;;;;;;;;;;;;;;14.67;100.00;98562.56;4884743;29;20241;-76
2022/05/05 15:44:54;;;;;;;;;;;;;;;14.68;100.00;98576.19;4884722;29;19949;-76
2022/05/05 15:47:22;;;;;;;;;;;;;;;14.69;100.00;98566.53;4884983;29;19997;-76
2022/05/05 15:49:50;;;;;;;;;;;;;;;14.66;100.00;98558.94;4885156;29;19950;-76
2022/05/05 15:52:18;;;;;;;;;;;;;;;14.67;100.00;98559.72;4891708;29;19949;-75
2022/05/05 15:54:45;;;;;;;;;;;;;;;14.69;100.00;98563.72;4889517;29;19955;-75
2022/05/05 15:57:16;;;;;;;;;;;;;;;14.67;100.00;98571.00;4896330;29;19947;-76
2022/05/05 15:59:46;;;;;;;;;;;;;;;14.67;100.00;98566.13;4886201;29;19949;-76
2022/05/05 16:02:17;;;;;;;;;;;;;;;14.65;100.00;98570.59;4884458;29;19951;-76
2022/05/05 16:04:45;;;;;;;;;;;;;;;14.64;100.00;98561.38;4884715;29;19952;-75
2022/05/05 16:07:13;;;;;;;;;;;;;;;14.64;100.00;98569.81;4885842;29;19951;-76
2022/05/05 16:09:42;;;;;;;;;;;;;;;14.62;100.00;98563.00;4880031;29;19953;-76
2022/05/05 16:12:10;;;;;;;;;;;;;;;14.58;100.00;98560.22;4884452;29;19948;-76
2022/05/05 16:14:37;;;;;;;;;;;;;;;14.55;100.00;98563.09;4883651;29;19948;-76
2022/05/05 16:17:05;;;;;;;;;;;;;;;14.54;100.00;98561.47;4885001;29;19953;-75
2022/05/05 16:19:32;;;;;;;;;;;;;;;14.55;100.00;98566.66;4884008;29;19969;-75
2022/05/05 16:22:00;;;;;;;;;;;;;;;14.56;100.00;98559.03;4887030;29;19963;-75
2022/05/05 16:30:08;;;;;;;;;;;;;;;14.37;100.00;98566.88;4884070;29;19953;-75
2022/05/05 16:32:35;;;;;;;;;;;;;;;14.33;100.00;98565.28;4881965;29;19958;-76
2022/05/05 16:35:03;;;;;;;;;;;;;;;14.28;100.00;98562.91;4889680;29;19948;-76
2022/05/05 16:37:31;;;;;;;;;;;;;;;14.27;100.00;98561.31;4888527;29;19950;-76
2022/05/05 16:39:58;;;;;;;;;;;;;;;14.28;100.00;98571.34;4889417;29;19960;-74
2022/05/05 16:42:26;;;;;;;;;;;;;;;14.21;100.00;98563.75;4892241;29;20246;-75
2022/05/05 16:44:53;;;;;;;;;;;;;;;14.23;100.00;98569.00;4888015;29;19951;-75
2022/05/05 16:47:20;;;;;;;;;;;;;;;14.21;100.00;98568.59;4883924;29;19950;-75
2022/05/05 16:49:47;;;;;;;;;;;;;;;14.18;100.00;98563.81;4882552;29;20233;-75
2022/05/05 16:52:15;;;;;;;;;;;;;;;14.16;100.00;98563.41;4889587;29;20356;-75
2022/05/05 16:54:42;;;;;;;;;;;;;;;14.15;100.00;98567.44;4884810;29;19957;-75
2022/05/05 16:57:09;;;;;;;;;;;;;;;14.08;100.00;98568.31;4883409;29;19959;-75
2022/05/05 16:59:37;;;;;;;;;;;;;;;14.02;100.00;98566.34;4884901;29;20270;-75
2022/05/05 17:02:06;;;;;;;;;;;;;;;14.02;100.00;98572.78;4885739;29;19965;-75
2022/05/05 17:04:33;;;;;;;;;;;;;;;13.92;100.00;98570.03;4886252;29;19951;-75
2022/05/05 17:07:01;;;;;;;;;;;;;;;13.97;100.00;98576.03;4887850;29;20238;-75
2022/05/05 17:09:28;;;;;;;;;;;;;;;13.86;100.00;98572.50;4888455;29;19950;-75
2022/05/05 17:11:56;;;;;;;;;;;;;;;13.87;100.00;98570.47;4893648;29;19949;-75
2022/05/05 17:14:23;;;;;;;;;;;;;;;13.80;100.00;98566.53;4891651;29;20332;-75
2022/05/05 17:16:50;;;;;;;;;;;;;;;13.80;100.00;98577.75;4886930;29;19962;-75
2022/05/05 17:19:17;;;;;;;;;;;;;;;13.76;100.00;98573.38;4884722;29;19964;-75
2022/05/05 17:21:45;;;;;;;;;;;;;;;13.63;100.00;98566.63;4889994;29;20373;-75
2022/05/05 17:24:12;;;;;;;;;;;;;;;13.58;100.00;98576.31;4890379;29;19957;-75
2022/05/05 17:26:39;;;;;;;;;;;;;;;13.47;100.00;98571.97;4891273;29;19949;-75
2022/05/05 17:29:07;;;;;;;;;;;;;;;13.45;100.00;98560.34;4886585;29;19953;-75
2022/05/05 17:31:34;;;;;;;;;;;;;;;13.34;100.00;98566.03;4882495;29;19955;-75
2022/05/05 17:34:02;;;;;;;;;;;;;;;13.32;100.00;98565.63;4874611;29;19958;-75
2022/05/05 17:36:37;;;;;;;;;;;;;;;13.18;100.00;98555.25;5288193;23;19965;31
2022/05/05 17:39:04;;;;;;;;;;;;;;;13.15;100.00;98560.91;4832059;29;19973;-76
2022/05/05 17:41:32;;;;;;;;;;;;;;;13.08;100.00;98569.38;4843729;29;20017;-76
2022/05/05 17:43:59;;;;;;;;;;;;;;;13.10;100.00;98564.94;4850450;29;19949;-77
2022/05/05 17:51:58;;;;;;;;;;;;;;;13.00;100.00;98567.75;4844936;29;19963;-73
2022/05/05 17:54:27;;;;;;;;;;;;;;;13.00;100.00;98562.16;4842630;29;20317;-75
2022/05/05 17:56:54;;;;;;;;;;;;;;;13.00;100.00;98557.34;4840402;29;19968;-73
2022/05/05 17:59:21;;;;;;;;;;;;;;;13.03;100.00;98564.16;4844380;29;19973;-76
2022/05/05 18:01:49;;;;;;;;;;;;;;;13.04;100.00;98563.72;4844760;29;19956;-75
2022/05/05 18:04:17;;;;;;;;;;;;;;;13.07;100.00;98581.78;4844734;29;19967;-77
2022/05/05 18:07:01;;;;;;;;;;;;;;;13.03;100.00;98578.97;4841110;29;20348;-78
2022/05/05 18:09:28;;;;;;;;;;;;;;;13.04;100.00;98572.16;4842693;29;19959;-77
2022/05/05 18:11:55;;;;;;;;;;;;;;;13.03;100.00;98573.34;4843866;29;19956;-76
2022/05/05 18:14:23;;;;;;;;;;;;;;;13.00;100.00;98579.00;4839900;29;19956;-77
2022/05/05 18:16:50;;;;;;;;;;;;;;;13.01;100.00;98578.56;4841884;29;20460;-77
2022/05/05 18:19:18;;;;;;;;;;;;;;;12.93;100.00;98579.03;4841904;29;20241;-77
2022/05/05 18:21:46;;;;;;;;;;;;;;;12.91;100.00;98582.22;4839896;29;19967;-76
2022/05/05 18:24:14;;;;;;;;;;;;;;;12.82;100.00;98581.84;4843247;29;19953;-77
2022/05/05 18:26:41;;;;;;;;;;;;;;;12.84;100.00;98581.44;4843257;29;19967;-77
2022/05/05 18:29:08;;;;;;;;;;;;;;;12.79;100.00;98593.88;4855535;29;19966;-77
2022/05/05 18:31:35;;;;;;;;;;;;;;;12.71;100.00;98588.72;4847639;29;19953;-77
2022/05/05 18:34:03;;;;;;;;;;;;;;;12.73;100.00;98592.72;4848018;29;19948;-76
2022/05/05 18:36:30;;;;;;;;;;;;;;;12.60;100.00;98590.72;4848769;29;19959;-77
2022/05/05 18:38:57;;;;;;;;;;;;;;;12.59;100.00;98591.94;4848462;29;20029;-76
2022/05/05 18:41:24;;;;;;;;;;;;;;;12.61;100.00;98592.34;4848294;29;19954;-77
2022/05/05 18:43:52;;;;;;;;;;;;;;;12.54;100.00;98593.16;4848674;29;19958;-76
2022/05/05 18:46:19;;;;;;;;;;;;;;;12.47;100.00;98596.75;4847483;29;19951;-77
2022/05/05 18:48:47;;;;;;;;;;;;;;;12.47;100.00;98593.97;4848158;29;19955;-77
2022/05/05 18:51:16;;;;;;;;;;;;;;;12.44;100.00;98597.59;4859241;29;19958;-77
2022/05/05 18:53:43;;;;;;;;;;;;;;;12.44;100.00;98600.41;4848003;29;19951;-77
2022/05/05 18:56:10;;;;;;;;;;;;;;;12.48;100.00;98598.38;4848103;29;20370;-76
2022/05/05 18:58:37;;;;;;;;;;;;;;;12.41;100.00;98606.81;4848153;29;20272;-76
2022/05/05 19:01:05;;;;;;;;;;;;;;;12.45;100.00;98610.41;4848657;29;19958;-77
2022/05/05 19:03:32;;;;;;;;;;;;;;;12.27;100.00;98606.81;4848324;29;20238;-77
2022/05/05 19:05:59;;;;;;;;;;;;;;;12.28;100.00;98604.81;4850464;29;19954;-77
2022/05/05 19:08:26;;;;;;;;;;;;;;;12.27;100.00;98603.22;4843321;29;19957;-77
2022/05/05 19:10:54;;;;;;;;;;;;;;;12.21;100.00;98602.00;4847837;29;19948;-76
2022/05/05 19:13:21;;;;;;;;;;;;;;;12.23;100.00;98606.00;4846485;29;20339;-76
2022/05/05 19:15:48;;;;;;;;;;;;;;;12.25;100.00;98612.00;4847682;29;19950;-76
2022/05/05 19:18:16;;;;;;;;;;;;;;;12.26;100.00;98616.44;4847642;29;20415;-77
2022/05/05 19:20:43;;;;;;;;;;;;;;;12.31;100.00;98616.03;4840882;29;19967;-76
2022/05/05 19:23:11;;;;;;;;;;;;;;;12.30;100.00;98613.63;4846468;29;19954;-77